createdAt,value
2023-12-26T00:00:46.577Z,98300.06
2023-12-26T00:01:50.435Z,98307.06
2023-12-26T00:02:52.916Z,98291.09
2023-12-26T00:03:55.387Z,98294.41
2023-12-26T00:04:57.592Z,98287.84
2023-12-26T00:05:59.960Z,98299.22
2023-12-26T00:07:02.441Z,98295.19
2023-12-26T00:08:05.072Z,98299.53
2023-12-26T00:09:07.522Z,98288.50
2023-12-26T00:10:09.895Z,98298.91
2023-12-26T00:11:11.992Z,98296.19
2023-12-26T00:12:14.127Z,98290.88
2023-12-26T00:13:16.208Z,98299.88
2023-12-26T00:14:18.705Z,98300.16
2023-12-26T00:15:21.002Z,98291.09
2023-12-26T00:16:23.266Z,98302.28
2023-12-26T00:17:25.491Z,98293.50
2023-12-26T00:18:27.668Z,98289.19
2023-12-26T00:19:30.014Z,98295.75
2023-12-26T00:20:32.071Z,98290.81
2023-12-26T00:21:34.089Z,98288.88
2023-12-26T00:22:36.296Z,98290.97
2023-12-26T00:23:38.563Z,98288.41
2023-12-26T00:24:40.692Z,98287.59
2023-12-26T00:25:45.404Z,98287.31
2023-12-26T00:26:47.501Z,98286.81
2023-12-26T00:27:49.582Z,98289.72
2023-12-26T00:28:51.614Z,98283.47
2023-12-26T00:29:53.653Z,98291.47
2023-12-26T00:30:55.716Z,98291.13
2023-12-26T00:31:57.831Z,98281.41
2023-12-26T00:33:00.310Z,98285.56
2023-12-26T00:34:02.851Z,98283.16
2023-12-26T00:35:05.496Z,98280.28
2023-12-26T00:36:14.129Z,98295.03
2023-12-26T00:37:16.336Z,98288.28
2023-12-26T00:38:19.889Z,98285.56
2023-12-26T00:39:21.834Z,98286.69
2023-12-26T00:40:23.882Z,98286.38
2023-12-26T00:41:26.112Z,98291.66
2023-12-26T00:42:28.307Z,98283.53
2023-12-26T00:43:30.472Z,98283.84
2023-12-26T00:44:32.448Z,98283.19
2023-12-26T00:45:34.394Z,98279.50
2023-12-26T00:46:36.534Z,98279.34
2023-12-26T00:47:38.670Z,98275.34
2023-12-26T00:48:41.087Z,98283.47
2023-12-26T00:49:43.509Z,98294.50
2023-12-26T00:50:45.846Z,98289.88
2023-12-26T00:51:48.180Z,98286.03
2023-12-26T00:52:50.524Z,98272.94
2023-12-26T00:53:53.426Z,98289.03
2023-12-26T00:54:55.542Z,98299.91
2023-12-26T00:55:58.141Z,98288.44
2023-12-26T00:57:00.631Z,98298.50
2023-12-26T00:58:03.129Z,98287.97
2023-12-26T00:59:05.602Z,98309.69
2023-12-26T01:00:09.318Z,98297.38
2023-12-26T01:01:11.749Z,98295.16
2023-12-26T01:02:14.169Z,98298.81
2023-12-26T01:03:23.846Z,98301.72
2023-12-26T01:04:27.658Z,98297.22
2023-12-26T01:05:29.989Z,98298.03
2023-12-26T01:06:32.391Z,98305.50
2023-12-26T01:07:34.536Z,98298.66
2023-12-26T01:08:36.977Z,98300.72
2023-12-26T01:09:39.356Z,98286.81
2023-12-26T01:10:41.425Z,98297.50
2023-12-26T01:11:43.822Z,98290.00
2023-12-26T01:12:46.721Z,98284.09
2023-12-26T01:13:48.773Z,98300.16
2023-12-26T01:14:50.882Z,98302.84
2023-12-26T01:15:53.236Z,98288.16
2023-12-26T01:16:55.615Z,98299.63
2023-12-26T01:17:57.958Z,98300.25
2023-12-26T01:19:00.842Z,98298.47
2023-12-26T01:20:04.162Z,98303.06
2023-12-26T01:21:07.149Z,98298.75
2023-12-26T01:22:09.560Z,98303.69
2023-12-26T01:23:11.997Z,98302.22
2023-12-26T01:24:14.976Z,98305.88
2023-12-26T01:25:17.055Z,98310.34
2023-12-26T01:26:19.552Z,98311.56
2023-12-26T01:27:22.038Z,98301.94
2023-12-26T01:28:24.320Z,98306.06
2023-12-26T01:29:26.301Z,98314.84
2023-12-26T01:30:28.536Z,98309.25
2023-12-26T01:31:30.649Z,98321.31
2023-12-26T01:32:33.822Z,98317.63
2023-12-26T01:33:36.298Z,98308.50
2023-12-26T01:34:38.497Z,98318.38
2023-12-26T01:35:41.744Z,98316.56
2023-12-26T01:36:44.158Z,98315.59
2023-12-26T01:37:46.723Z,98321.63
2023-12-26T01:38:48.896Z,98324.66
2023-12-26T01:39:51.229Z,98321.25
2023-12-26T01:40:53.794Z,98330.81
2023-12-26T01:41:56.335Z,98320.56
2023-12-26T01:42:58.995Z,98317.66
2023-12-26T01:44:01.860Z,98330.22
2023-12-26T01:45:05.481Z,98324.31
2023-12-26T01:46:09.885Z,98317.09
2023-12-26T01:47:13.581Z,98322.81
2023-12-26T01:48:16.230Z,98332.34
2023-12-26T01:49:19.540Z,98330.53
2023-12-26T01:50:25.034Z,98336.56
2023-12-26T01:51:29.814Z,98327.16
2023-12-26T01:52:32.375Z,98330.81
2023-12-26T01:53:35.519Z,98320.25
2023-12-26T01:54:39.128Z,98326.28
2023-12-26T01:55:42.706Z,98334.72
2023-12-26T01:56:47.879Z,98324.03
2023-12-26T01:57:52.447Z,98330.00
2023-12-26T01:58:55.084Z,98333.34
2023-12-26T01:59:57.436Z,98333.66
2023-12-26T02:00:59.643Z,98336.97
2023-12-26T02:02:02.347Z,98335.59
2023-12-26T02:03:05.092Z,98328.72
2023-12-26T02:04:07.414Z,98325.22
2023-12-26T02:05:11.042Z,98335.53
2023-12-26T02:06:16.037Z,98324.22
2023-12-26T02:07:18.890Z,98331.03
2023-12-26T02:08:21.021Z,98321.63
2023-12-26T02:09:23.253Z,98325.44
2023-12-26T02:10:25.865Z,98340.38
2023-12-26T02:11:27.969Z,98335.03
2023-12-26T02:12:30.236Z,98338.06
2023-12-26T02:13:36.922Z,98346.66
2023-12-26T02:14:39.218Z,98335.16
2023-12-26T02:15:41.681Z,98337.34
2023-12-26T02:16:49.008Z,98345.44
2023-12-26T02:17:52.916Z,98340.97
2023-12-26T02:18:56.910Z,98338.06
2023-12-26T02:19:59.275Z,98339.16
2023-12-26T02:21:01.215Z,98337.03
2023-12-26T02:22:04.879Z,98340.66
2023-12-26T02:23:06.873Z,98351.16
2023-12-26T02:24:09.291Z,98348.56
2023-12-26T02:25:11.873Z,98348.75
2023-12-26T02:26:15.546Z,98342.06
2023-12-26T02:27:36.403Z,98340.97
2023-12-26T02:28:40.860Z,98346.13
2023-12-26T02:29:50.394Z,98351.28
2023-12-26T02:30:53.569Z,98347.03
2023-12-26T02:31:57.166Z,98348.19
2023-12-26T02:33:02.253Z,98338.31
2023-12-26T02:34:07.036Z,98356.03
2023-12-26T02:35:11.028Z,98344.19
2023-12-26T02:36:13.179Z,98344.31
2023-12-26T02:37:15.686Z,98346.72
2023-12-26T02:38:17.904Z,98351.31
2023-12-26T02:39:20.585Z,98352.97
2023-12-26T02:40:22.625Z,98363.00
2023-12-26T02:41:24.672Z,98359.00
2023-12-26T02:42:30.223Z,98360.88
2023-12-26T02:43:34.106Z,98361.19
2023-12-26T02:44:36.177Z,98363.09
2023-12-26T02:45:38.240Z,98355.28
2023-12-26T02:46:40.749Z,98357.50
2023-12-26T02:47:43.038Z,98359.16
2023-12-26T02:48:45.913Z,98354.56
2023-12-26T02:49:48.228Z,98356.47
2023-12-26T02:50:50.361Z,98356.75
2023-12-26T02:51:52.402Z,98345.47
2023-12-26T02:52:54.570Z,98357.94
2023-12-26T02:53:56.791Z,98359.25
2023-12-26T02:54:58.904Z,98358.78
2023-12-26T02:56:01.079Z,98354.72
2023-12-26T02:57:05.467Z,98347.75
2023-12-26T02:58:07.564Z,98350.44
2023-12-26T02:59:09.578Z,98355.34
2023-12-26T03:00:17.598Z,98346.44
2023-12-26T03:01:19.676Z,98335.13
2023-12-26T03:02:21.786Z,98334.63
2023-12-26T03:03:23.964Z,98326.91
2023-12-26T03:04:28.313Z,98342.50
2023-12-26T03:05:30.798Z,98342.50
2023-12-26T03:06:32.863Z,98329.59
2023-12-26T03:07:34.995Z,98343.09
2023-12-26T03:08:37.003Z,98344.50
2023-12-26T03:09:39.505Z,98343.41
2023-12-26T03:10:41.480Z,98344.00
2023-12-26T03:11:43.549Z,98352.59
2023-12-26T03:12:45.747Z,98342.91
2023-12-26T03:13:48.127Z,98347.75
2023-12-26T03:14:50.173Z,98346.94
2023-12-26T03:15:52.222Z,98348.34
2023-12-26T03:16:54.198Z,98345.63
2023-12-26T03:17:56.406Z,98347.03
2023-12-26T03:18:59.007Z,98346.25
2023-12-26T03:20:01.300Z,98361.94
2023-12-26T03:21:03.552Z,98346.84
2023-12-26T03:22:07.856Z,98340.09
2023-12-26T03:23:10.300Z,98339.31
2023-12-26T03:24:12.556Z,98344.19
2023-12-26T03:25:14.778Z,98347.19
2023-12-26T03:26:16.830Z,98347.19
2023-12-26T03:27:18.978Z,98349.09
2023-12-26T03:28:21.033Z,98345.59
2023-12-26T03:29:22.985Z,98342.97
2023-12-26T03:30:25.355Z,98350.78
2023-12-26T03:31:27.657Z,98340.84
2023-12-26T03:32:29.806Z,98344.66
2023-12-26T03:33:32.791Z,98348.34
2023-12-26T03:34:35.127Z,98347.56
2023-12-26T03:35:37.364Z,98337.66
2023-12-26T03:36:50.253Z,98348.09
2023-12-26T03:37:52.570Z,98341.16
2023-12-26T03:38:54.635Z,98344.16
2023-12-26T03:39:56.844Z,98337.16
2023-12-26T03:40:59.192Z,98342.84
2023-12-26T03:42:01.622Z,98346.63
2023-12-26T03:43:04.423Z,98341.25
2023-12-26T03:44:07.308Z,98345.84
2023-12-26T03:45:10.356Z,98345.84
2023-12-26T03:46:12.688Z,98351.50
2023-12-26T03:47:15.256Z,98338.00
2023-12-26T03:48:17.611Z,98357.19
2023-12-26T03:49:19.854Z,98339.72
2023-12-26T03:50:22.605Z,98341.31
2023-12-26T03:51:24.583Z,98349.69
2023-12-26T03:52:28.217Z,98347.00
2023-12-26T03:53:30.245Z,98342.50
2023-12-26T03:54:32.757Z,98352.97
2023-12-26T03:55:36.048Z,98349.75
2023-12-26T03:56:38.141Z,98337.09
2023-12-26T03:57:42.953Z,98348.94
2023-12-26T03:58:44.848Z,98346.84
2023-12-26T03:59:47.257Z,98339.25
2023-12-26T04:00:49.392Z,98342.25
2023-12-26T04:01:51.475Z,98347.66
2023-12-26T04:02:53.748Z,98330.66
2023-12-26T04:03:55.971Z,98340.94
2023-12-26T04:04:58.344Z,98343.66
2023-12-26T04:06:00.933Z,98347.44
2023-12-26T04:07:03.943Z,98350.13
2023-12-26T04:08:06.424Z,98338.84
2023-12-26T04:09:10.149Z,98341.03
2023-12-26T04:10:12.288Z,98343.13
2023-12-26T04:11:14.732Z,98338.34
2023-12-26T04:12:17.096Z,98330.81
2023-12-26T04:13:19.192Z,98332.41
2023-12-26T04:14:21.334Z,98339.69
2023-12-26T04:15:23.444Z,98338.91
2023-12-26T04:16:25.827Z,98331.59
2023-12-26T04:17:27.944Z,98345.38
2023-12-26T04:18:30.410Z,98341.88
2023-12-26T04:19:32.675Z,98338.41
2023-12-26T04:20:34.887Z,98341.34
2023-12-26T04:21:37.199Z,98348.38
2023-12-26T04:22:39.322Z,98342.44
2023-12-26T04:23:41.358Z,98346.75
2023-12-26T04:24:43.465Z,98338.16
2023-12-26T04:25:45.920Z,98342.75
2023-12-26T04:26:48.123Z,98347.59
2023-12-26T04:27:50.377Z,98336.00
2023-12-26T04:28:52.699Z,98346.81
2023-12-26T04:29:55.061Z,98343.31
2023-12-26T04:30:58.204Z,98343.31
2023-12-26T04:32:00.946Z,98347.09
2023-12-26T04:33:03.704Z,98340.09
2023-12-26T04:34:06.377Z,98342.00
2023-12-26T04:35:09.467Z,98332.59
2023-12-26T04:36:12.052Z,98335.00
2023-12-26T04:37:14.633Z,98328.81
2023-12-26T04:38:16.876Z,98331.50
2023-12-26T04:39:19.501Z,98329.09
2023-12-26T04:40:24.265Z,98326.69
2023-12-26T04:41:26.406Z,98330.72
2023-12-26T04:42:28.555Z,98327.50
2023-12-26T04:43:30.617Z,98325.63
2023-12-26T04:44:32.851Z,98329.41
2023-12-26T04:45:37.232Z,98334.78
2023-12-26T04:46:40.567Z,98330.19
2023-12-26T04:47:42.752Z,98330.50
2023-12-26T04:48:45.213Z,98327.00
2023-12-26T04:49:47.456Z,98327.00
2023-12-26T04:50:49.498Z,98327.81
2023-12-26T04:51:51.629Z,98331.59
2023-12-26T04:52:54.033Z,98338.03
2023-12-26T04:53:56.296Z,98340.75
2023-12-26T04:54:58.303Z,98329.44
2023-12-26T04:56:00.370Z,98325.66
2023-12-26T04:57:02.550Z,98312.78
2023-12-26T04:58:05.042Z,98320.56
2023-12-26T04:59:07.086Z,98313.88
2023-12-26T05:00:13.374Z,98323.25
2023-12-26T05:01:17.250Z,98327.06
2023-12-26T05:02:19.577Z,98323.56
2023-12-26T05:03:21.703Z,98330.03
2023-12-26T05:04:23.682Z,98328.94
2023-12-26T05:05:25.895Z,98329.44
2023-12-26T05:06:28.086Z,98333.25
2023-12-26T05:07:30.067Z,98332.72
2023-12-26T05:08:32.753Z,98348.63
2023-12-26T05:09:35.258Z,98337.03
2023-12-26T05:10:37.247Z,98337.03
2023-12-26T05:11:39.273Z,98337.31
2023-12-26T05:12:41.377Z,98338.41
2023-12-26T05:13:43.395Z,98331.44
2023-12-26T05:14:45.421Z,98333.84
2023-12-26T05:15:48.153Z,98345.41
2023-12-26T05:16:52.063Z,98339.81
2023-12-26T05:17:54.165Z,98341.41
2023-12-26T05:18:56.696Z,98346.00
2023-12-26T05:20:04.371Z,98347.59
2023-12-26T05:21:23.510Z,98339.81
2023-12-26T05:22:25.976Z,98346.28
2023-12-26T05:23:28.269Z,98340.91
2023-12-26T05:24:38.478Z,98351.38
2023-12-26T05:25:47.726Z,98348.41
2023-12-26T05:26:49.751Z,98355.97
2023-12-26T05:27:51.742Z,98341.16
2023-12-26T05:28:53.690Z,98357.06
2023-12-26T05:29:55.805Z,98361.63
2023-12-26T05:30:57.859Z,98353.84
2023-12-26T05:32:00.121Z,98360.03
2023-12-26T05:33:02.606Z,98360.03
2023-12-26T05:34:07.257Z,98364.13
2023-12-26T05:35:09.588Z,98359.22
2023-12-26T05:36:11.680Z,98359.22
2023-12-26T05:37:13.840Z,98360.31
2023-12-26T05:38:15.750Z,98357.91
2023-12-26T05:39:17.949Z,98365.72
2023-12-26T05:40:20.488Z,98359.03
2023-12-26T05:41:22.492Z,98372.19
2023-12-26T05:42:25.041Z,98363.59
2023-12-26T05:43:27.305Z,98368.69
2023-12-26T05:44:29.287Z,98368.19
2023-12-26T05:45:33.462Z,98369.00
2023-12-26T05:46:35.509Z,98355.81
2023-12-26T05:47:37.775Z,98357.72
2023-12-26T05:48:44.157Z,98364.69
2023-12-26T05:49:46.486Z,98367.41
2023-12-26T05:50:48.766Z,98366.59
2023-12-26T05:51:50.719Z,98363.09
2023-12-26T05:52:52.757Z,98365.50
2023-12-26T05:53:55.046Z,98359.59
2023-12-26T05:54:57.357Z,98359.91
2023-12-26T05:55:59.645Z,98361.50
2023-12-26T05:57:01.719Z,98366.88
2023-12-26T05:58:03.933Z,98358.81
2023-12-26T05:59:05.883Z,98361.50
2023-12-26T06:00:10.513Z,98355.56
2023-12-26T06:01:12.727Z,98367.97
2023-12-26T06:02:14.800Z,98360.97
2023-12-26T06:03:17.260Z,98358.03
2023-12-26T06:04:19.511Z,98365.84
2023-12-26T06:05:21.696Z,98376.31
2023-12-26T06:06:23.938Z,98377.41
2023-12-26T06:07:26.060Z,98384.41
2023-12-26T06:08:28.286Z,98374.72
2023-12-26T06:09:30.510Z,98387.38
2023-12-26T06:10:32.597Z,98386.59
2023-12-26T06:11:34.609Z,98377.41
2023-12-26T06:12:37.001Z,98383.38
2023-12-26T06:13:39.067Z,98391.19
2023-12-26T06:14:41.503Z,98381.78
2023-12-26T06:15:43.434Z,98390.09
2023-12-26T06:16:45.348Z,98387.19
2023-12-26T06:17:47.926Z,98380.97
2023-12-26T06:18:50.130Z,98377.78
2023-12-26T06:19:52.436Z,98380.97
2023-12-26T06:20:54.504Z,98380.97
2023-12-26T06:21:56.542Z,98385.56
2023-12-26T06:22:58.807Z,98382.88
2023-12-26T06:24:01.085Z,98384.78
2023-12-26T06:25:03.750Z,98385.88
2023-12-26T06:26:08.617Z,98392.06
2023-12-26T06:27:11.512Z,98391.25
2023-12-26T06:28:13.586Z,98398.53
2023-12-26T06:29:15.726Z,98404.22
2023-12-26T06:30:18.496Z,98404.22
2023-12-26T06:31:21.044Z,98407.72
2023-12-26T06:32:23.239Z,98410.66
2023-12-26T06:33:25.796Z,98410.41
2023-12-26T06:34:28.091Z,98410.66
2023-12-26T06:35:30.161Z,98407.97
2023-12-26T06:36:33.612Z,98408.78
2023-12-26T06:37:35.698Z,98408.25
2023-12-26T06:38:38.036Z,98417.16
2023-12-26T06:39:41.583Z,98406.38
2023-12-26T06:40:44.240Z,98408.56
2023-12-26T06:41:46.333Z,98410.16
2023-12-26T06:42:48.524Z,98411.53
2023-12-26T06:43:50.699Z,98415.03
2023-12-26T06:44:53.049Z,98414.75
2023-12-26T06:45:55.168Z,98421.22
2023-12-26T06:46:57.328Z,98415.03
2023-12-26T06:47:59.400Z,98430.09
2023-12-26T06:49:01.458Z,98420.41
2023-12-26T06:50:04.187Z,98424.19
2023-12-26T06:51:06.914Z,98416.13
2023-12-26T06:52:08.952Z,98420.41
2023-12-26T06:53:11.245Z,98424.19
2023-12-26T06:54:13.846Z,98421.50
2023-12-26T06:55:17.400Z,98428.78
2023-12-26T06:56:20.922Z,98430.69
2023-12-26T06:57:23.025Z,98429.06
2023-12-26T06:58:25.629Z,98430.16
2023-12-26T06:59:28.165Z,98430.16
2023-12-26T07:00:30.363Z,98431.78
2023-12-26T07:01:34.906Z,98436.91
2023-12-26T07:02:37.126Z,98434.22
2023-12-26T07:03:39.206Z,98440.94
2023-12-26T07:04:45.761Z,98434.47
2023-12-26T07:05:47.831Z,98433.66
2023-12-26T07:06:51.435Z,98440.94
2023-12-26T07:07:53.471Z,98451.72
2023-12-26T07:08:55.868Z,98439.59
2023-12-26T07:09:57.863Z,98442.03
2023-12-26T07:11:00.895Z,98438.81
2023-12-26T07:12:03.598Z,98451.22
2023-12-26T07:13:05.529Z,98446.88
2023-12-26T07:14:07.618Z,98451.47
2023-12-26T07:15:10.746Z,98452.56
2023-12-26T07:16:12.785Z,98466.81
2023-12-26T07:17:14.774Z,98457.66
2023-12-26T07:18:17.014Z,98453.06
2023-12-26T07:19:19.179Z,98436.09
2023-12-26T07:20:21.233Z,98450.38
2023-12-26T07:21:23.475Z,98453.63
2023-12-26T07:22:26.141Z,98464.13
2023-12-26T07:23:28.451Z,98456.06
2023-12-26T07:24:30.715Z,98452.81
2023-12-26T07:25:32.819Z,98465.22
2023-12-26T07:26:34.866Z,98468.97
2023-12-26T07:27:37.147Z,98461.97
2023-12-26T07:28:39.282Z,98462.78
2023-12-26T07:29:41.393Z,98471.97
2023-12-26T07:30:43.761Z,98477.34
2023-12-26T07:31:45.777Z,98480.84
2023-12-26T07:32:49.065Z,98479.53
2023-12-26T07:33:53.318Z,98479.22
2023-12-26T07:34:56.901Z,98478.94
2023-12-26T07:36:01.418Z,98488.91
2023-12-26T07:37:03.507Z,98487.31
2023-12-26T07:38:06.344Z,98496.50
2023-12-26T07:39:08.546Z,98493.78
2023-12-26T07:40:11.724Z,98498.09
2023-12-26T07:41:13.676Z,98493.28
2023-12-26T07:42:16.243Z,98494.59
2023-12-26T07:43:18.562Z,98495.69
2023-12-26T07:44:20.456Z,98500.28
2023-12-26T07:45:24.739Z,98497.06
2023-12-26T07:46:27.047Z,98499.47
2023-12-26T07:47:29.060Z,98502.97
2023-12-26T07:48:31.182Z,98504.84
2023-12-26T07:49:33.831Z,98497.88
2023-12-26T07:50:35.951Z,98501.88
2023-12-26T07:51:38.713Z,98507.84
2023-12-26T07:52:41.128Z,98508.34
2023-12-26T07:53:43.376Z,98507.56
2023-12-26T07:54:45.448Z,98512.13
2023-12-26T07:55:47.718Z,98519.41
2023-12-26T07:56:49.968Z,98514.81
2023-12-26T07:57:52.633Z,98516.16
2023-12-26T07:58:56.175Z,98513.75
2023-12-26T07:59:58.370Z,98527.28
2023-12-26T08:01:00.492Z,98517.91
2023-12-26T08:02:02.978Z,98525.47
2023-12-26T08:03:05.354Z,98525.75
2023-12-26T08:04:08.994Z,98517.97
2023-12-26T08:05:11.411Z,98528.44
2023-12-26T08:06:13.623Z,98519.59
2023-12-26T08:07:15.781Z,98527.94
2023-12-26T08:08:17.738Z,98534.13
2023-12-26T08:09:21.906Z,98543.53
2023-12-26T08:10:26.983Z,98530.88
2023-12-26T08:11:29.174Z,98545.44
2023-12-26T08:12:31.109Z,98537.34
2023-12-26T08:13:33.136Z,98531.16
2023-12-26T08:14:35.315Z,98530.06
2023-12-26T08:15:37.686Z,98536.25
2023-12-26T08:16:39.609Z,98537.63
2023-12-26T08:17:41.946Z,98537.09
2023-12-26T08:18:44.459Z,98535.47
2023-12-26T08:19:46.612Z,98538.97
2023-12-26T08:20:48.656Z,98543.53
2023-12-26T08:21:52.498Z,98542.72
2023-12-26T08:22:54.774Z,98545.97
2023-12-26T08:23:57.197Z,98547.31
2023-12-26T08:24:59.320Z,98544.09
2023-12-26T08:26:01.307Z,98540.84
2023-12-26T08:27:03.976Z,98532.78
2023-12-26T08:28:07.588Z,98531.97
2023-12-26T08:29:09.606Z,98534.13
2023-12-26T08:30:12.341Z,98544.63
2023-12-26T08:31:16.324Z,98547.31
2023-12-26T08:32:18.417Z,98546.22
2023-12-26T08:33:20.694Z,98542.72
2023-12-26T08:34:23.646Z,98553.25
2023-12-26T08:35:27.175Z,98556.47
2023-12-26T08:36:29.436Z,98558.09
2023-12-26T08:37:31.683Z,98564.56
2023-12-26T08:38:33.894Z,98566.72
2023-12-26T08:39:36.120Z,98566.16
2023-12-26T08:40:38.493Z,98577.72
2023-12-26T08:41:40.508Z,98570.22
2023-12-26T08:42:42.709Z,98561.06
2023-12-26T08:43:45.650Z,98568.84
2023-12-26T08:44:47.754Z,98578.53
2023-12-26T08:45:50.043Z,98573.16
2023-12-26T08:46:52.882Z,98582.88
2023-12-26T08:47:55.448Z,98576.94
2023-12-26T08:48:57.977Z,98578.53
2023-12-26T08:50:00.798Z,98578.81
2023-12-26T08:51:03.147Z,98579.09
2023-12-26T08:52:06.038Z,98583.94
2023-12-26T08:53:08.426Z,98579.63
2023-12-26T08:54:12.857Z,98581.50
2023-12-26T08:55:17.392Z,98586.91
2023-12-26T08:56:19.985Z,98585.00
2023-12-26T08:57:22.464Z,98586.09
2023-12-26T08:58:28.324Z,98596.06
2023-12-26T08:59:30.263Z,98593.88
2023-12-26T09:00:32.590Z,98598.47
2023-12-26T09:01:37.317Z,98603.56
2023-12-26T09:02:47.636Z,98597.38
2023-12-26T09:03:54.723Z,98595.50
2023-12-26T09:05:00.852Z,98599.28
2023-12-26T09:06:03.356Z,98593.09
2023-12-26T09:07:05.947Z,98601.72
2023-12-26T09:08:08.332Z,98601.44
2023-12-26T09:09:11.617Z,98600.06
2023-12-26T09:10:13.697Z,98606.56
2023-12-26T09:11:15.795Z,98599.03
2023-12-26T09:12:17.940Z,98610.34
2023-12-26T09:13:22.789Z,98607.63
2023-12-26T09:14:25.008Z,98613.03
2023-12-26T09:15:27.156Z,98613.03
2023-12-26T09:16:29.286Z,98613.81
2023-12-26T09:17:31.431Z,98626.47
2023-12-26T09:18:33.814Z,98623.00
2023-12-26T09:19:36.220Z,98626.78
2023-12-26T09:20:38.538Z,98630.25
2023-12-26T09:21:40.673Z,98630.25
2023-12-26T09:22:44.818Z,98632.44
2023-12-26T09:23:47.151Z,98639.44
2023-12-26T09:24:49.522Z,98634.03
2023-12-26T09:25:51.829Z,98643.19
2023-12-26T09:26:54.131Z,98635.66
2023-12-26T09:27:56.787Z,98642.13
2023-12-26T09:28:58.825Z,98647.50
2023-12-26T09:30:01.114Z,98643.72
2023-12-26T09:31:03.580Z,98632.97
2023-12-26T09:32:06.341Z,98637.81
2023-12-26T09:33:08.624Z,98640.22
2023-12-26T09:34:11.798Z,98640.50
2023-12-26T09:35:14.190Z,98642.13
2023-12-26T09:36:17.455Z,98648.59
2023-12-26T09:37:19.984Z,98647.50
2023-12-26T09:38:22.203Z,98647.78
2023-12-26T09:39:24.774Z,98651.28
2023-12-26T09:40:27.628Z,98651.56
2023-12-26T09:41:29.773Z,98652.38
2023-12-26T09:42:32.021Z,98658.84
2023-12-26T09:43:34.579Z,98649.66
2023-12-26T09:44:37.519Z,98665.03
2023-12-26T09:45:39.628Z,98658.03
2023-12-26T09:46:41.828Z,98661.25
2023-12-26T09:47:45.180Z,98667.72
2023-12-26T09:48:47.847Z,98667.72
2023-12-26T09:49:51.829Z,98673.38
2023-12-26T09:50:57.617Z,98678.19
2023-12-26T09:52:04.024Z,98676.31
2023-12-26T09:53:10.032Z,98673.91
2023-12-26T09:54:14.598Z,98683.59
2023-12-26T09:55:18.518Z,98682.50
2023-12-26T09:56:22.571Z,98689.78
2023-12-26T09:57:24.879Z,98690.59
2023-12-26T09:58:27.878Z,98683.59
2023-12-26T09:59:31.038Z,98697.06
2023-12-26T10:00:34.674Z,98682.78
2023-12-26T10:01:36.755Z,98683.59
2023-12-26T10:02:39.234Z,98682.78
2023-12-26T10:03:43.378Z,98683.06
2023-12-26T10:04:46.942Z,98688.16
2023-12-26T10:05:51.068Z,98673.91
2023-12-26T10:06:54.007Z,98682.78
2023-12-26T10:07:56.269Z,98681.19
2023-12-26T10:08:58.944Z,98672.00
2023-12-26T10:10:01.332Z,98676.59
2023-12-26T10:11:03.884Z,98674.44
2023-12-26T10:12:09.447Z,98675.50
2023-12-26T10:13:12.130Z,98667.44
2023-12-26T10:14:27.953Z,98657.97
2023-12-26T10:15:30.258Z,98659.88
2023-12-26T10:16:35.900Z,98662.06
2023-12-26T10:17:38.547Z,98660.16
2023-12-26T10:18:40.961Z,98659.88
2023-12-26T10:19:43.474Z,98669.03
2023-12-26T10:20:45.991Z,98677.13
2023-12-26T10:21:48.347Z,98673.63
2023-12-26T10:22:50.796Z,98676.59
2023-12-26T10:23:53.957Z,98683.59
2023-12-26T10:24:57.014Z,98687.88
2023-12-26T10:26:00.220Z,98687.09
2023-12-26T10:27:02.655Z,98688.16
2023-12-26T10:28:05.652Z,98699.75
2023-12-26T10:29:13.858Z,98710.75
2023-12-26T10:30:20.319Z,98700.28
2023-12-26T10:31:22.688Z,98700.28
2023-12-26T10:32:26.841Z,98691.38
2023-12-26T10:33:29.309Z,98696.50
2023-12-26T10:34:32.155Z,98698.38
2023-12-26T10:35:35.420Z,98693.28
2023-12-26T10:36:46.150Z,98695.41
2023-12-26T10:37:48.165Z,98691.38
2023-12-26T10:38:50.241Z,98680.63
2023-12-26T10:39:53.132Z,98687.59
2023-12-26T10:41:01.659Z,98680.06
2023-12-26T10:42:05.202Z,98689.22
2023-12-26T10:43:07.894Z,98686.00
2023-12-26T10:44:11.031Z,98695.69
2023-12-26T10:45:15.318Z,98682.50
2023-12-26T10:46:20.511Z,98682.22
2023-12-26T10:47:23.368Z,98681.41
2023-12-26T10:48:35.077Z,98684.09
2023-12-26T10:49:41.838Z,98677.66
2023-12-26T10:50:44.260Z,98676.84
2023-12-26T10:51:47.010Z,98683.84
2023-12-26T10:53:16.378Z,98667.38
2023-12-26T10:54:26.180Z,98656.09
2023-12-26T10:55:29.216Z,98665.78
2023-12-26T10:56:34.007Z,98673.06
2023-12-26T10:57:37.454Z,98683.31
2023-12-26T10:58:41.899Z,98675.22
2023-12-26T11:00:49.672Z,98686.47
2023-12-26T11:03:06.797Z,98685.38
2023-12-26T11:05:24.172Z,98691.34
2023-12-26T11:07:41.684Z,98692.72
2023-12-26T11:09:58.922Z,98697.28
2023-12-26T11:12:16.239Z,98686.25
2023-12-26T11:14:33.653Z,98686.53
2023-12-26T11:16:51.103Z,98685.19
2023-12-26T11:19:08.533Z,98684.38
2023-12-26T11:21:26.391Z,98694.91
2023-12-26T11:23:43.624Z,98700.59
2023-12-26T11:26:00.666Z,98714.28
2023-12-26T11:28:18.267Z,98705.41
2023-12-26T11:30:35.815Z,98717.53
2023-12-26T11:32:53.370Z,98716.47
2023-12-26T11:35:10.522Z,98724.53
2023-12-26T11:37:27.785Z,98722.94
2023-12-26T11:39:45.146Z,98714.84
2023-12-26T11:42:02.361Z,98718.34
2023-12-26T11:44:19.687Z,98723.44
2023-12-26T11:46:37.501Z,98730.44
2023-12-26T11:48:54.588Z,98736.63
2023-12-26T11:51:12.104Z,98739.09
2023-12-26T11:53:29.051Z,98727.22
2023-12-26T11:55:46.291Z,98720.75
2023-12-26T11:58:03.541Z,98704.31
2023-12-26T12:00:20.846Z,98718.59
2023-12-26T12:02:38.334Z,98729.09
2023-12-26T12:04:55.815Z,98733.91
2023-12-26T12:07:13.425Z,98713.16
2023-12-26T12:09:30.666Z,98727.19
2023-12-26T12:11:48.134Z,98721.53
2023-12-26T12:14:05.551Z,98724.22
2023-12-26T12:16:23.325Z,98727.44
2023-12-26T12:18:41.002Z,98743.31
2023-12-26T12:20:58.107Z,98739.53
2023-12-26T12:23:15.230Z,98741.94
2023-12-26T12:25:32.621Z,98740.06
2023-12-26T12:27:50.456Z,98726.06
2023-12-26T12:30:07.696Z,98724.19
2023-12-26T12:32:24.932Z,98726.59
2023-12-26T12:34:42.232Z,98734.38
2023-12-26T12:36:59.508Z,98736.00
2023-12-26T12:39:16.305Z,98742.19
2023-12-26T12:41:33.897Z,98743.50
2023-12-26T12:43:50.889Z,98741.63
2023-12-26T12:46:09.149Z,98738.69
2023-12-26T12:48:26.512Z,98735.72
2023-12-26T12:50:44.319Z,98740.00
2023-12-26T12:53:01.559Z,98735.44
2023-12-26T12:55:19.490Z,98744.84
2023-12-26T12:57:36.900Z,98742.69
2023-12-26T12:59:54.498Z,98742.69
2023-12-26T13:02:11.506Z,98736.22
2023-12-26T13:04:28.518Z,98766.41
2023-12-26T13:06:45.576Z,98765.03
2023-12-26T13:09:03.051Z,98770.16
2023-12-26T13:11:20.395Z,98769.88
2023-12-26T13:13:37.668Z,98758.81
2023-12-26T13:15:54.705Z,98763.91
2023-12-26T13:18:12.098Z,98750.16
2023-12-26T13:20:29.322Z,98767.97
2023-12-26T13:22:46.569Z,98765.00
2023-12-26T13:25:04.110Z,98774.69
2023-12-26T13:27:21.445Z,98777.91
2023-12-26T13:29:38.978Z,98769.00
2023-12-26T13:31:58.493Z,98767.94
2023-12-26T13:35:39.921Z,98776.00
2023-12-26T13:37:59.808Z,98765.22
2023-12-26T13:40:17.930Z,98766.03
2023-12-26T13:42:35.254Z,98777.63
2023-12-26T13:44:52.645Z,98777.63
2023-12-26T13:47:09.784Z,98798.09
2023-12-26T13:51:16.351Z,98793.28
2023-12-26T13:52:18.384Z,98799.22
2023-12-26T13:53:20.616Z,98789.00
2023-12-26T13:54:22.555Z,98787.13